Time;durP1;ratioP1;P1;durP2;ratioP2;P2;SDS_P1;SDS_P2;PMS_P1;PMS_P2;Temp;Humidity;BMP_temperature;BMP_pressure;BME280_temperature;BME280_humidity;BME280_pressure;Samples;Min_cycle;Max_cycle;Signal;HPM_P1;HPM_P2
2023/03/16 00:02:08;;;;;;;9.83;6.47;;;5.90;87.80;;;;;;5085393;28;20631;-65
2023/03/16 00:04:36;;;;;;;7.90;6.43;;;5.90;87.70;;;;;;5090919;28;20339;-64
2023/03/16 00:07:09;;;;;;;9.30;6.93;;;5.90;87.80;;;;;;5089217;28;20281;-65
2023/03/16 00:09:39;;;;;;;9.40;6.70;;;5.90;87.80;;;;;;5088039;28;20618;-65
2023/03/16 00:12:17;;;;;;;8.47;7.00;;;5.90;88.00;;;;;;5087524;28;20581;-65
2023/03/16 00:14:47;;;;;;;9.90;6.73;;;6.00;88.30;;;;;;5091413;28;20202;-65
2023/03/16 00:17:19;;;;;;;11.17;7.67;;;6.00;88.40;;;;;;5089288;28;20205;-65
2023/03/16 00:19:53;;;;;;;9.37;7.37;;;6.00;88.60;;;;;;5090165;28;20214;-65
2023/03/16 00:22:26;;;;;;;11.90;8.07;;;6.10;88.70;;;;;;5092139;28;20261;-65
2023/03/16 00:24:54;;;;;;;9.83;7.40;;;6.10;88.90;;;;;;5087828;28;20224;-65
2023/03/16 00:27:23;;;;;;;9.23;7.23;;;6.10;89.10;;;;;;5087794;28;20193;-65
2023/03/16 00:29:55;;;;;;;9.73;7.10;;;6.10;89.20;;;;;;5083556;28;20205;-65
2023/03/16 00:32:29;;;;;;;9.23;7.57;;;6.10;89.00;;;;;;5088378;28;20262;-65
2023/03/16 00:34:56;;;;;;;9.83;7.37;;;6.20;88.60;;;;;;5091964;28;20210;-65
2023/03/16 00:37:25;;;;;;;7.93;6.20;;;6.20;88.40;;;;;;5087936;28;20224;-65
2023/03/16 00:39:56;;;;;;;8.03;6.63;;;6.10;88.60;;;;;;5091896;28;20217;-65
2023/03/16 00:42:27;;;;;;;7.83;6.33;;;6.20;88.90;;;;;;5091311;28;20576;-65
2023/03/16 00:44:57;;;;;;;9.67;7.33;;;6.20;88.90;;;;;;5089464;28;20193;-66
2023/03/16 00:47:30;;;;;;;10.07;6.90;;;6.20;88.70;;;;;;5090345;28;20220;-65
2023/03/16 00:49:57;;;;;;;12.83;7.00;;;6.20;88.20;;;;;;5088852;28;20201;-65
2023/03/16 00:52:26;;;;;;;8.43;6.13;;;6.20;88.10;;;;;;5087434;28;20240;-65
2023/03/16 00:54:54;;;;;;;9.70;6.77;;;6.20;88.00;;;;;;5086256;28;20216;-65
2023/03/16 00:57:24;;;;;;;8.00;6.97;;;6.20;88.20;;;;;;5091916;28;20198;-65
2023/03/16 00:59:51;;;;;;;10.27;7.50;;;6.20;88.20;;;;;;5084343;28;20228;-65
2023/03/16 01:02:22;;;;;;;9.70;7.50;;;6.20;88.00;;;;;;5091498;28;20201;-65
2023/03/16 01:04:51;;;;;;;10.83;7.47;;;6.20;88.00;;;;;;5085410;28;20200;-65
2023/03/16 01:07:18;;;;;;;9.77;7.10;;;6.20;88.00;;;;;;5090590;28;20193;-65
2023/03/16 01:09:45;;;;;;;11.63;7.23;;;6.20;88.10;;;;;;5077474;28;20238;-65
2023/03/16 01:12:16;;;;;;;11.67;7.30;;;6.30;88.10;;;;;;5076222;28;20220;-65
2023/03/16 01:14:47;;;;;;;9.70;6.70;;;6.30;88.00;;;;;;5090371;28;20203;-65
2023/03/16 01:17:16;;;;;;;10.77;6.27;;;6.30;87.80;;;;;;5089809;28;20279;-65
2023/03/16 01:19:44;;;;;;;7.50;6.23;;;6.40;87.80;;;;;;5092111;28;20538;-65
2023/03/16 01:22:11;;;;;;;12.33;7.57;;;6.40;87.60;;;;;;5092462;28;20193;-66
2023/03/16 01:24:39;;;;;;;12.17;6.47;;;6.40;87.10;;;;;;5089783;28;20202;-65
2023/03/16 01:27:07;;;;;;;8.70;6.87;;;6.30;86.70;;;;;;5093995;28;20653;-65
2023/03/16 01:29:35;;;;;;;8.43;6.70;;;6.30;86.60;;;;;;5088130;28;20647;-65
2023/03/16 01:32:03;;;;;;;9.07;6.33;;;6.30;86.30;;;;;;5089151;28;20592;-65
2023/03/16 01:34:32;;;;;;;8.33;5.90;;;6.30;85.80;;;;;;5075271;28;20594;-65
2023/03/16 01:37:00;;;;;;;6.93;5.60;;;6.30;85.40;;;;;;5091772;28;20228;-65
2023/03/16 01:39:41;;;;;;;8.60;5.50;;;6.30;85.30;;;;;;5092458;28;20532;-65
2023/03/16 01:42:09;;;;;;;8.27;5.33;;;6.30;85.40;;;;;;5092447;28;20251;-65
2023/03/16 01:45:27;;;;;;;7.17;5.10;;;6.20;85.50;;;;;;5092674;28;20208;-64
2023/03/16 01:47:57;;;;;;;8.77;5.73;;;6.20;85.50;;;;;;5085616;28;20285;-65
2023/03/16 01:50:26;;;;;;;7.90;5.93;;;6.20;85.40;;;;;;5093115;28;20641;-65
2023/03/16 01:52:53;;;;;;;9.23;5.47;;;6.20;85.50;;;;;;5093107;28;20208;-65
2023/03/16 01:55:22;;;;;;;9.83;5.87;;;6.20;85.30;;;;;;5090391;28;20252;-65
2023/03/16 01:57:50;;;;;;;7.03;5.43;;;6.10;85.00;;;;;;5089843;28;20624;-65
2023/03/16 02:00:22;;;;;;;8.70;6.40;;;6.10;84.90;;;;;;5093147;28;20213;-65
2023/03/16 02:03:13;;;;;;;8.27;6.00;;;6.00;85.00;;;;;;5085008;28;20208;-65
2023/03/16 02:06:19;;;;;;;8.07;6.47;;;6.00;85.20;;;;;;5103854;28;20197;-65
2023/03/16 02:08:54;;;;;;;8.93;6.43;;;5.90;85.60;;;;;;5103665;28;20224;-64
2023/03/16 02:11:23;;;;;;;8.43;6.37;;;5.90;85.90;;;;;;5075192;28;20205;-66
2023/03/16 02:14:10;;;;;;;10.50;7.03;;;5.80;86.30;;;;;;5089990;28;20213;-65
2023/03/16 02:16:39;;;;;;;10.03;6.50;;;5.80;86.70;;;;;;5080180;28;20240;-65
2023/03/16 02:19:14;;;;;;;10.20;7.27;;;5.80;86.80;;;;;;5093385;28;20281;-65
2023/03/16 02:21:48;;;;;;;9.43;7.13;;;5.80;87.00;;;;;;5098571;28;20207;-65
2023/03/16 02:24:15;;;;;;;9.90;6.80;;;5.70;87.10;;;;;;5091852;28;20284;-65
2023/03/16 02:26:50;;;;;;;9.27;6.53;;;5.70;87.00;;;;;;5093087;28;20255;-65
2023/03/16 02:29:26;;;;;;;7.80;6.50;;;5.60;87.20;;;;;;5108362;28;20197;-65
2023/03/16 02:31:55;;;;;;;7.77;6.03;;;5.60;87.50;;;;;;5091926;28;20321;-65
2023/03/16 02:34:24;;;;;;;6.77;5.80;;;5.60;87.60;;;;;;5093527;28;20197;-65
2023/03/16 02:36:53;;;;;;;7.27;6.43;;;5.60;87.80;;;;;;5088911;28;20562;-65
2023/03/16 02:39:23;;;;;;;7.00;5.67;;;5.50;88.10;;;;;;5090370;28;20663;-65
2023/03/16 02:41:51;;;;;;;5.37;4.87;;;5.60;88.30;;;;;;5090942;28;20201;-67
2023/03/16 02:44:23;;;;;;;7.57;5.20;;;5.60;88.20;;;;;;5082135;28;20699;-65
2023/03/16 02:46:56;;;;;;;6.13;5.00;;;5.60;88.20;;;;;;5105626;28;20202;-65
2023/03/16 02:49:33;;;;;;;7.80;5.47;;;5.60;88.20;;;;;;5093324;28;20212;-65
2023/03/16 02:52:00;;;;;;;7.20;5.03;;;5.60;88.10;;;;;;5092265;28;20296;-65
2023/03/16 02:54:28;;;;;;;5.87;4.80;;;5.60;88.10;;;;;;5093159;28;20637;-65
2023/03/16 02:56:55;;;;;;;8.33;5.63;;;5.60;88.10;;;;;;5090305;28;20652;-64
2023/03/16 02:59:24;;;;;;;6.23;4.93;;;5.60;88.00;;;;;;5091907;28;20633;-65
2023/03/16 03:01:51;;;;;;;5.30;4.80;;;5.60;87.90;;;;;;5092463;28;20278;-65
2023/03/16 03:04:19;;;;;;;6.27;5.03;;;5.60;87.70;;;;;;5089827;28;20214;-66
2023/03/16 03:06:48;;;;;;;6.60;4.50;;;5.50;87.40;;;;;;5091524;28;20197;-65
2023/03/16 03:09:15;;;;;;;5.63;4.57;;;5.50;87.30;;;;;;5091052;28;20213;-65
2023/03/16 03:11:42;;;;;;;5.53;4.30;;;5.50;87.30;;;;;;5092990;28;20202;-65
2023/03/16 03:14:09;;;;;;;5.37;4.23;;;5.50;87.40;;;;;;5071154;28;20212;-65
2023/03/16 03:16:38;;;;;;;6.37;4.10;;;5.40;87.30;;;;;;5090693;28;20639;-65
2023/03/16 03:19:05;;;;;;;5.53;4.50;;;5.40;87.40;;;;;;5089926;28;20221;-65
2023/03/16 03:21:35;;;;;;;6.53;3.87;;;5.40;87.20;;;;;;5080653;28;20221;-65
2023/03/16 03:24:04;;;;;;;7.90;4.30;;;5.40;87.30;;;;;;5090617;28;20243;-65
2023/03/16 03:26:33;;;;;;;5.53;3.93;;;5.30;87.40;;;;;;5089655;28;20209;-65
2023/03/16 03:29:01;;;;;;;4.57;3.80;;;5.30;87.50;;;;;;5091582;28;20205;-65
2023/03/16 03:31:29;;;;;;;6.10;4.23;;;5.30;87.60;;;;;;5089350;28;20646;-65
2023/03/16 03:33:56;;;;;;;5.63;3.93;;;5.30;87.70;;;;;;5090307;28;20649;-65
2023/03/16 03:36:23;;;;;;;6.20;4.73;;;5.20;87.70;;;;;;5085886;28;20209;-65
2023/03/16 03:38:53;;;;;;;6.63;4.30;;;5.20;87.90;;;;;;5090466;28;20197;-65
2023/03/16 03:41:21;;;;;;;5.47;4.10;;;5.20;88.10;;;;;;5089078;28;20209;-65
2023/03/16 03:43:49;;;;;;;5.63;4.30;;;5.10;88.10;;;;;;5088476;28;20688;-65
2023/03/16 03:46:17;;;;;;;4.50;4.00;;;5.10;88.20;;;;;;5088343;28;20524;-65
2023/03/16 03:48:45;;;;;;;5.63;4.30;;;5.10;88.30;;;;;;5088049;28;20722;-65
2023/03/16 03:51:12;;;;;;;6.27;4.33;;;5.10;88.40;;;;;;5089082;28;20297;-65
2023/03/16 03:53:53;;;;;;;5.87;4.83;;;5.00;88.40;;;;;;5092677;28;20205;-65
2023/03/16 03:56:42;;;;;;;6.03;4.90;;;5.00;88.40;;;;;;5090477;28;20208;-65
2023/03/16 03:59:14;;;;;;;9.13;5.23;;;5.00;88.60;;;;;;5079364;28;20197;-65
2023/03/16 04:02:14;;;;;;;12.00;7.17;;;5.00;88.70;;;;;;5058397;28;20303;-65
2023/03/16 04:04:47;;;;;;;11.40;6.50;;;5.00;88.70;;;;;;5087517;28;20216;-65
2023/03/16 04:07:14;;;;;;;10.27;6.20;;;4.90;88.40;;;;;;5087526;28;20197;-65
2023/03/16 04:09:43;;;;;;;8.97;5.90;;;4.90;88.30;;;;;;5082030;28;20201;-65
2023/03/16 04:12:19;;;;;;;7.73;5.80;;;4.80;88.40;;;;;;5088789;28;20209;-65
2023/03/16 04:14:46;;;;;;;5.90;4.50;;;4.80;88.50;;;;;;5088707;28;20212;-65
2023/03/16 04:17:15;;;;;;;11.77;6.30;;;4.80;88.80;;;;;;5092279;28;20211;-65
2023/03/16 04:19:44;;;;;;;5.97;4.27;;;4.70;88.60;;;;;;5091481;28;20223;-66
2023/03/16 04:22:14;;;;;;;5.27;4.43;;;4.70;88.60;;;;;;5090172;28;20197;-65
2023/03/16 04:24:43;;;;;;;6.33;4.33;;;4.60;88.70;;;;;;5100301;28;20697;-65
2023/03/16 04:27:12;;;;;;;4.77;3.80;;;4.60;88.80;;;;;;5076694;28;20200;-65
2023/03/16 04:29:39;;;;;;;6.83;4.43;;;4.60;88.90;;;;;;5088935;28;20212;-65
2023/03/16 04:32:07;;;;;;;4.77;3.77;;;4.60;88.90;;;;;;5087419;28;20300;-65
2023/03/16 04:34:34;;;;;;;7.27;4.60;;;4.60;89.10;;;;;;5088225;28;20650;-65
2023/03/16 04:37:05;;;;;;;8.90;4.60;;;4.50;89.20;;;;;;5084889;28;21379;-65
2023/03/16 04:39:35;;;;;;;6.90;4.40;;;4.50;89.30;;;;;;5107583;28;20231;-65
2023/03/16 04:42:02;;;;;;;6.37;4.50;;;4.50;89.30;;;;;;5090097;28;20240;-65
2023/03/16 04:44:29;;;;;;;5.97;4.30;;;4.50;89.20;;;;;;5079814;28;20205;-65
2023/03/16 04:46:58;;;;;;;8.13;4.03;;;4.50;89.30;;;;;;5087966;28;20200;-65
2023/03/16 04:49:30;;;;;;;6.53;4.23;;;4.40;89.30;;;;;;5088776;28;20290;-65
2023/03/16 04:51:57;;;;;;;6.80;4.40;;;4.40;89.40;;;;;;5082219;28;20265;-65
2023/03/16 04:54:24;;;;;;;11.43;5.67;;;4.40;89.60;;;;;;5090585;28;20204;-66
2023/03/16 04:56:52;;;;;;;10.43;5.77;;;4.40;89.80;;;;;;5094763;28;20245;-65
2023/03/16 04:59:42;;;;;;;10.67;6.07;;;4.40;89.90;;;;;;5093381;28;20226;-65
2023/03/16 05:02:20;;;;;;;9.57;5.90;;;4.30;89.90;;;;;;5089662;28;20654;-65
2023/03/16 05:04:48;;;;;;;5.67;4.70;;;4.30;90.00;;;;;;5090712;28;20693;-65
2023/03/16 05:07:16;;;;;;;6.70;4.47;;;4.30;90.10;;;;;;5084594;28;20283;-65
2023/03/16 05:09:48;;;;;;;6.17;4.73;;;4.30;90.20;;;;;;5092318;28;20208;-65
2023/03/16 05:12:15;;;;;;;9.20;4.90;;;4.30;90.30;;;;;;5093810;28;20207;-64
2023/03/16 05:14:44;;;;;;;5.93;4.80;;;4.30;90.30;;;;;;5108960;28;20258;-65
2023/03/16 05:17:23;;;;;;;6.03;4.60;;;4.30;90.30;;;;;;5093349;28;20212;-65
2023/03/16 05:19:50;;;;;;;6.37;4.37;;;4.30;90.40;;;;;;5094117;28;20224;-65
2023/03/16 05:22:19;;;;;;;9.90;4.50;;;4.30;90.30;;;;;;5076972;28;20208;-65
2023/03/16 05:25:13;;;;;;;4.20;3.60;;;4.30;90.30;;;;;;5094776;28;20288;-65
2023/03/16 05:27:52;;;;;;;5.97;4.50;;;4.30;90.40;;;;;;5091951;28;20205;-65
2023/03/16 05:30:30;;;;;;;6.17;4.23;;;4.30;90.50;;;;;;5106986;28;20223;-65
2023/03/16 05:33:00;;;;;;;4.97;3.87;;;4.40;90.60;;;;;;5092388;28;20303;-65
2023/03/16 05:35:27;;;;;;;8.77;4.70;;;4.40;90.60;;;;;;5094876;28;20274;-65
2023/03/16 05:37:59;;;;;;;5.70;4.50;;;4.40;90.70;;;;;;5095148;28;20304;-65
2023/03/16 05:40:27;;;;;;;7.43;4.23;;;4.40;90.80;;;;;;5091417;28;20674;-65
2023/03/16 05:43:12;;;;;;;4.63;3.83;;;4.40;90.80;;;;;;5076138;28;20265;-65
2023/03/16 05:45:45;;;;;;;5.27;4.20;;;4.50;90.80;;;;;;5094035;28;20266;-65
2023/03/16 05:48:15;;;;;;;4.60;4.13;;;4.40;90.70;;;;;;5093416;28;20207;-66
2023/03/16 05:50:50;;;;;;;5.47;4.03;;;4.50;90.70;;;;;;5092648;28;20634;-65
2023/03/16 05:53:27;;;;;;;5.43;4.53;;;4.50;90.60;;;;;;5108660;28;20213;-65
2023/03/16 05:55:58;;;;;;;6.70;4.60;;;4.50;90.50;;;;;;5094396;28;20208;-65
2023/03/16 05:58:25;;;;;;;6.73;5.00;;;4.50;90.50;;;;;;5094366;28;20205;-65
2023/03/16 06:00:54;;;;;;;10.23;5.23;;;4.60;90.50;;;;;;5092246;28;20312;-65
2023/03/16 06:03:25;;;;;;;6.10;4.60;;;4.60;90.50;;;;;;5093295;28;20266;-65
2023/03/16 06:05:54;;;;;;;6.10;4.40;;;4.70;90.50;;;;;;5092058;28;20278;-67
2023/03/16 06:08:31;;;;;;;7.83;5.00;;;4.80;90.60;;;;;;5101148;28;20744;-64
2023/03/16 06:11:07;;;;;;;9.37;4.77;;;4.80;90.60;;;;;;5089293;28;20240;-65
2023/03/16 06:13:35;;;;;;;9.43;5.43;;;4.90;90.80;;;;;;5109176;28;20231;-65
2023/03/16 06:16:02;;;;;;;6.33;4.87;;;5.00;90.90;;;;;;5091178;28;20236;-65
2023/03/16 06:18:29;;;;;;;10.97;5.73;;;5.20;90.70;;;;;;5094076;28;20655;-65
2023/03/16 06:20:57;;;;;;;9.63;4.90;;;5.20;90.40;;;;;;5086681;28;20233;-65
2023/03/16 06:23:24;;;;;;;15.20;6.13;;;5.30;90.20;;;;;;5089919;28;20193;-65
2023/03/16 06:25:55;;;;;;;9.60;5.83;;;5.40;90.20;;;;;;5090567;28;20598;-65
2023/03/16 06:28:24;;;;;;;7.83;5.37;;;5.40;90.30;;;;;;5090706;28;20246;-65
2023/03/16 06:30:56;;;;;;;7.80;5.10;;;5.60;90.30;;;;;;5082218;28;20299;-64
2023/03/16 06:33:27;;;;;;;16.10;5.63;;;5.70;90.10;;;;;;5074117;28;20207;-65
2023/03/16 06:35:55;;;;;;;4.90;4.30;;;5.90;90.00;;;;;;5092515;28;20227;-65
2023/03/16 06:38:51;;;;;;;10.90;6.17;;;6.10;89.80;;;;;;5085604;28;20665;-65
2023/03/16 06:41:34;;;;;;;7.57;5.27;;;6.20;89.00;;;;;;5091518;28;20242;-65
2023/03/16 06:44:01;;;;;;;8.83;5.23;;;6.40;88.50;;;;;;5092251;28;20647;-65
2023/03/16 06:46:29;;;;;;;7.50;5.20;;;6.50;87.90;;;;;;5090729;28;20198;-65
2023/03/16 06:48:59;;;;;;;12.10;5.40;;;6.60;87.50;;;;;;5093208;28;20580;-65
2023/03/16 06:51:27;;;;;;;6.80;4.57;;;6.70;87.30;;;;;;5078752;28;20209;-65
2023/03/16 06:53:54;;;;;;;8.07;5.67;;;6.80;86.60;;;;;;5092685;28;20597;-65
2023/03/16 06:56:22;;;;;;;14.03;5.67;;;6.80;85.00;;;;;;5089823;28;20215;-65
2023/03/16 06:58:49;;;;;;;7.37;4.70;;;6.90;85.40;;;;;;5091777;28;20205;-65
2023/03/16 07:01:16;;;;;;;7.63;5.57;;;7.10;84.80;;;;;;5090834;28;20209;-65
2023/03/16 07:03:43;;;;;;;4.40;3.63;;;7.20;84.30;;;;;;5090271;28;20265;-65
2023/03/16 07:06:19;;;;;;;5.70;4.27;;;7.40;84.80;;;;;;5089904;28;20197;-65
2023/03/16 07:08:46;;;;;;;5.60;4.73;;;7.40;85.20;;;;;;5085970;28;20277;-64
2023/03/16 07:11:14;;;;;;;4.27;3.60;;;7.40;84.60;;;;;;5105988;28;20274;-65
2023/03/16 07:13:41;;;;;;;10.03;4.67;;;7.40;84.60;;;;;;5090150;28;20299;-65
2023/03/16 07:16:09;;;;;;;7.13;4.00;;;7.40;84.90;;;;;;5092447;28;20201;-65
2023/03/16 07:18:39;;;;;;;6.50;4.77;;;7.40;84.90;;;;;;5090944;28;20292;-65
2023/03/16 07:21:09;;;;;;;6.97;5.67;;;7.50;85.00;;;;;;5090766;28;20261;-65
2023/03/16 07:23:37;;;;;;;7.77;5.17;;;7.50;85.00;;;;;;5078506;28;20291;-64
2023/03/16 07:26:07;;;;;;;7.93;5.00;;;7.60;85.00;;;;;;5092173;28;20205;-65
2023/03/16 07:28:42;;;;;;;7.23;5.27;;;7.70;84.90;;;;;;5078395;28;20207;-64
2023/03/16 07:31:09;;;;;;;5.87;4.40;;;7.80;84.70;;;;;;5090088;28;20210;-64
2023/03/16 07:33:39;;;;;;;8.23;4.90;;;7.90;84.50;;;;;;5079759;28;20215;-65
2023/03/16 07:36:09;;;;;;;8.83;5.50;;;8.00;84.60;;;;;;5091874;28;20216;-64
2023/03/16 07:38:42;;;;;;;5.40;4.67;;;8.10;84.50;;;;;;5087063;28;20232;-65
2023/03/16 07:41:11;;;;;;;6.13;4.27;;;8.20;84.70;;;;;;5089273;28;20239;-65
2023/03/16 07:43:39;;;;;;;5.30;4.80;;;8.40;83.90;;;;;;5091077;28;20252;-64
2023/03/16 07:46:12;;;;;;;7.90;4.77;;;8.50;83.10;;;;;;5092849;28;20213;-65
2023/03/16 07:48:42;;;;;;;5.30;4.27;;;8.70;82.60;;;;;;5073669;28;20203;-65
2023/03/16 07:51:12;;;;;;;5.73;4.87;;;8.80;82.40;;;;;;5107026;28;20206;-65
2023/03/16 07:53:41;;;;;;;7.40;4.40;;;8.90;82.20;;;;;;5089218;28;20609;-65
2023/03/16 07:56:31;;;;;;;5.20;3.80;;;9.00;82.40;;;;;;5089649;28;20288;-65
2023/03/16 07:59:22;;;;;;;4.60;3.93;;;9.30;82.70;;;;;;5089536;28;20657;-65
2023/03/16 08:01:49;;;;;;;3.93;3.53;;;9.50;82.10;;;;;;5075704;28;20220;-65
2023/03/16 08:04:17;;;;;;;7.27;4.00;;;9.80;81.50;;;;;;5091821;28;20656;-65
2023/03/16 08:06:46;;;;;;;5.57;3.97;;;9.90;79.60;;;;;;5090791;28;20206;-65
2023/03/16 08:09:14;;;;;;;4.20;3.80;;;10.10;79.40;;;;;;5090279;28;20649;-64
2023/03/16 08:11:42;;;;;;;5.97;4.33;;;10.20;80.30;;;;;;5091223;28;20273;-65
2023/03/16 08:14:09;;;;;;;6.07;4.17;;;10.40;78.60;;;;;;5089832;28;20270;-65
2023/03/16 08:16:57;;;;;;;3.40;3.10;;;10.60;78.40;;;;;;5080797;28;20377;-65
2023/03/16 08:19:26;;;;;;;4.60;3.90;;;10.80;78.30;;;;;;5088101;28;20258;-65
2023/03/16 08:21:58;;;;;;;4.70;3.97;;;11.00;78.10;;;;;;5089816;28;20236;-65
2023/03/16 08:24:35;;;;;;;7.10;3.97;;;11.20;78.00;;;;;;5088322;28;20232;-64
2023/03/16 08:27:04;;;;;;;5.03;4.23;;;11.50;76.50;;;;;;5091650;28;20233;-65
2023/03/16 08:29:36;;;;;;;5.50;3.67;;;11.70;76.60;;;;;;5097989;28;20211;-65
2023/03/16 08:32:06;;;;;;;4.67;3.90;;;11.80;75.30;;;;;;5090573;28;20209;-64
2023/03/16 08:34:38;;;;;;;6.43;4.50;;;12.00;75.40;;;;;;5093165;28;20524;-65
2023/03/16 08:37:08;;;;;;;4.23;3.60;;;12.20;76.30;;;;;;5093459;28;20209;-65
2023/03/16 08:39:35;;;;;;;3.63;3.30;;;12.40;75.60;;;;;;5094018;28;20209;-65
2023/03/16 08:42:07;;;;;;;4.70;3.40;;;12.60;74.90;;;;;;5095505;28;20241;-64
2023/03/16 08:44:41;;;;;;;4.70;3.70;;;12.80;74.90;;;;;;5087692;28;20223;-64
2023/03/16 08:47:09;;;;;;;4.00;2.70;;;13.00;73.20;;;;;;5094413;28;20254;-64
2023/03/16 08:49:37;;;;;;;3.33;2.63;;;13.20;73.90;;;;;;5095938;28;20204;-64
2023/03/16 08:52:09;;;;;;;10.50;2.23;;;13.40;73.00;;;;;;5091836;28;20209;-64
2023/03/16 08:54:36;;;;;;;3.37;2.43;;;13.60;72.70;;;;;;5094905;28;20199;-64
2023/03/16 08:57:03;;;;;;;2.60;2.13;;;13.80;71.70;;;;;;5094183;28;20200;-65
2023/03/16 08:59:30;;;;;;;4.37;2.40;;;14.00;69.40;;;;;;5093138;28;20240;-65
2023/03/16 09:01:58;;;;;;;3.80;2.30;;;14.10;69.00;;;;;;5094375;28;20210;-65
2023/03/16 09:04:27;;;;;;;4.17;1.80;;;14.20;68.40;;;;;;5094865;28;20197;-64
2023/03/16 09:06:54;;;;;;;3.40;2.37;;;14.30;67.50;;;;;;5092501;28;20200;-65
2023/03/16 09:09:36;;;;;;;2.97;1.70;;;14.40;67.30;;;;;;5091262;28;20201;-65
2023/03/16 09:12:04;;;;;;;2.20;2.00;;;14.50;67.00;;;;;;5093206;28;20196;-64
2023/03/16 09:14:32;;;;;;;2.47;2.13;;;14.60;64.40;;;;;;5093822;28;20209;-65
2023/03/16 09:16:59;;;;;;;5.20;1.47;;;14.60;63.10;;;;;;5090845;28;20213;-65
2023/03/16 09:19:26;;;;;;;2.10;1.40;;;14.70;62.20;;;;;;5093893;28;20575;-65
2023/03/16 09:22:00;;;;;;;2.60;1.50;;;14.70;59.80;;;;;;5094291;28;20213;-64
2023/03/16 09:24:28;;;;;;;3.00;1.40;;;14.70;59.40;;;;;;5089759;28;20652;-64
2023/03/16 09:26:55;;;;;;;3.13;1.47;;;14.80;59.80;;;;;;5093222;28;20189;-64
2023/03/16 09:29:23;;;;;;;1.20;1.10;;;14.90;59.40;;;;;;5092483;28;20594;-67
2023/03/16 09:31:50;;;;;;;2.40;0.90;;;14.90;56.60;;;;;;5095041;28;20602;-68
2023/03/16 09:34:17;;;;;;;1.83;1.10;;;14.90;54.80;;;;;;5090193;28;20507;-64
2023/03/16 09:36:45;;;;;;;2.37;1.07;;;14.90;54.80;;;;;;5092773;28;20205;-64
2023/03/16 09:39:12;;;;;;;1.40;1.10;;;14.90;54.40;;;;;;5093759;28;20667;-65
2023/03/16 09:42:03;;;;;;;3.67;1.37;;;15.00;54.20;;;;;;5091578;28;20315;-63
2023/03/16 09:44:48;;;;;;;1.00;0.83;;;15.10;55.50;;;;;;5092377;28;20196;-65
2023/03/16 09:47:17;;;;;;;2.17;1.07;;;15.20;55.30;;;;;;5093616;28;20190;-65
2023/03/16 09:49:47;;;;;;;2.00;1.00;;;15.30;55.00;;;;;;5094885;28;20201;-66
2023/03/16 09:52:33;;;;;;;1.70;1.10;;;15.50;53.80;;;;;;5092365;28;20568;-64
2023/03/16 09:55:03;;;;;;;1.50;0.87;;;15.60;52.10;;;;;;5093013;28;20210;-64
2023/03/16 09:57:34;;;;;;;1.57;1.00;;;15.60;51.80;;;;;;5092281;28;20195;-64
2023/03/16 10:00:24;;;;;;;1.60;1.00;;;15.60;50.20;;;;;;5090390;28;20194;-65
2023/03/16 10:03:33;;;;;;;2.97;0.90;;;15.60;50.00;;;;;;5091102;28;20662;-64
2023/03/16 10:06:09;;;;;;;1.77;1.20;;;15.60;48.00;;;;;;5087682;28;20236;-67
2023/03/16 10:08:44;;;;;;;1.23;0.97;;;15.50;47.10;;;;;;5093721;28;20288;-64
2023/03/16 10:11:20;;;;;;;1.60;1.03;;;15.50;47.30;;;;;;5092892;28;20205;-65
2023/03/16 10:13:54;;;;;;;2.00;1.20;;;15.50;46.70;;;;;;5093195;28;20209;-65
2023/03/16 10:16:32;;;;;;;2.60;0.90;;;15.50;48.10;;;;;;5092578;28;20228;-62
2023/03/16 10:19:11;;;;;;;2.30;1.07;;;15.60;48.40;;;;;;5092916;28;20224;-65
2023/03/16 10:21:40;;;;;;;2.40;1.10;;;15.60;46.10;;;;;;5090207;28;20277;-65
2023/03/16 10:24:40;;;;;;;3.00;1.10;;;15.60;46.10;;;;;;5092180;28;20189;-61
2023/03/16 10:27:15;;;;;;;1.23;0.83;;;15.60;46.60;;;;;;5091176;28;20212;-64
2023/03/16 10:29:42;;;;;;;1.53;0.80;;;15.70;46.70;;;;;;5091775;28;20197;-65
2023/03/16 10:32:15;;;;;;;3.70;0.90;;;15.70;46.50;;;;;;5089525;28;20212;-66
2023/03/16 10:34:59;;;;;;;1.90;1.00;;;15.70;47.50;;;;;;5090092;28;20209;-65
2023/03/16 10:37:29;;;;;;;3.90;1.50;;;15.80;48.10;;;;;;5094253;28;20612;-64
2023/03/16 10:39:59;;;;;;;1.27;0.93;;;16.00;47.50;;;;;;5088740;28;20213;-63
2023/03/16 10:42:27;;;;;;;2.07;1.30;;;16.10;46.90;;;;;;5087260;28;20723;-64
2023/03/16 10:44:58;;;;;;;2.83;1.10;;;16.20;46.70;;;;;;5090973;28;20311;-65
2023/03/16 10:47:32;;;;;;;3.80;1.03;;;16.30;46.30;;;;;;5093377;28;20271;-66
2023/03/16 10:50:15;;;;;;;1.57;0.80;;;16.30;45.60;;;;;;5086382;28;20284;-65
2023/03/16 10:52:46;;;;;;;1.90;1.10;;;16.30;45.30;;;;;;5090778;28;20205;-63
2023/03/16 10:55:18;;;;;;;3.90;1.27;;;16.40;46.00;;;;;;5087994;28;20244;-64
2023/03/16 10:57:52;;;;;;;3.00;1.40;;;16.40;46.00;;;;;;5092212;28;20638;-64
2023/03/16 11:00:24;;;;;;;1.30;1.20;;;16.50;47.20;;;;;;5090233;28;20247;-64
2023/03/16 11:02:55;;;;;;;1.67;1.20;;;16.60;47.10;;;;;;5091897;28;20217;-64
2023/03/16 11:05:40;;;;;;;2.63;0.93;;;16.70;46.40;;;;;;5094388;28;20300;-65
2023/03/16 11:08:10;;;;;;;4.07;1.17;;;16.70;45.60;;;;;;5091674;28;20213;-65
2023/03/16 11:10:59;;;;;;;2.63;0.90;;;16.70;44.90;;;;;;5093074;28;20634;-65
2023/03/16 11:13:36;;;;;;;4.63;1.30;;;16.70;46.10;;;;;;5090478;28;20290;-65
2023/03/16 11:16:15;;;;;;;1.07;0.90;;;16.80;46.50;;;;;;5091953;28;20215;-64
2023/03/16 11:18:52;;;;;;;1.90;1.00;;;16.80;45.60;;;;;;5092240;28;20202;-66
2023/03/16 11:21:49;;;;;;;1.73;1.53;;;16.90;47.00;;;;;;5091775;28;20221;-66
2023/03/16 11:24:43;;;;;;;1.67;1.00;;;16.90;45.60;;;;;;5090902;28;20206;-65
2023/03/16 11:27:30;;;;;;;1.87;1.20;;;17.00;44.30;;;;;;5087080;28;20195;-66
2023/03/16 11:30:34;;;;;;;2.40;0.97;;;16.80;43.70;;;;;;5092405;28;20203;-64
2023/03/16 11:33:01;;;;;;;3.23;1.23;;;16.80;44.20;;;;;;5073152;28;20206;-65
2023/03/16 11:35:50;;;;;;;2.40;1.00;;;16.70;45.70;;;;;;5090161;28;20246;-64
2023/03/16 11:38:38;;;;;;;1.73;1.03;;;16.70;45.50;;;;;;5092027;28;20205;-65
2023/03/16 11:41:14;;;;;;;2.20;1.00;;;16.70;45.00;;;;;;5091600;28;20635;-64
2023/03/16 11:43:47;;;;;;;3.03;1.23;;;16.80;45.40;;;;;;5089866;28;20249;-65
2023/03/16 11:46:25;;;;;;;1.23;0.87;;;16.80;46.00;;;;;;5091388;28;20235;-63
2023/03/16 11:49:10;;;;;;;3.40;1.20;;;16.90;44.20;;;;;;5089528;28;20324;-64
2023/03/16 11:51:47;;;;;;;2.60;0.97;;;16.80;43.30;;;;;;5091418;28;20211;-65
2023/03/16 11:54:40;;;;;;;4.67;1.40;;;16.80;42.40;;;;;;5089579;28;20549;-64
2023/03/16 11:57:33;;;;;;;2.10;1.20;;;16.70;41.90;;;;;;5092372;28;20191;-63
2023/03/16 12:00:21;;;;;;;1.80;1.03;;;16.70;42.60;;;;;;5088834;28;20227;-65
2023/03/16 12:03:28;;;;;;;1.23;1.00;;;16.70;40.90;;;;;;5091735;28;20206;-64
2023/03/16 12:06:00;;;;;;;1.40;1.10;;;16.60;42.30;;;;;;5090944;28;20285;-65
2023/03/16 12:08:58;;;;;;;1.10;1.00;;;16.80;42.40;;;;;;5090211;28;20544;-64
2023/03/16 12:11:35;;;;;;;2.27;1.30;;;16.80;42.00;;;;;;5088771;28;20213;-64
2023/03/16 12:14:34;;;;;;;2.30;1.57;;;16.80;42.00;;;;;;5091018;28;20234;-64
2023/03/16 12:17:29;;;;;;;3.93;1.17;;;16.80;42.50;;;;;;5086673;28;20562;-65
2023/03/16 12:20:24;;;;;;;1.50;0.93;;;16.80;42.90;;;;;;5089478;28;20191;-64
2023/03/16 12:23:01;;;;;;;1.90;1.20;;;16.80;43.10;;;;;;5084953;28;20236;-64
2023/03/16 12:25:39;;;;;;;1.30;1.20;;;16.80;43.80;;;;;;5089037;28;20202;-65
2023/03/16 12:28:17;;;;;;;2.23;1.40;;;16.80;43.60;;;;;;5100665;28;20208;-64
2023/03/16 12:30:59;;;;;;;2.57;1.10;;;16.90;42.70;;;;;;5089027;28;20193;-64
2023/03/16 12:33:54;;;;;;;1.37;0.97;;;16.90;42.50;;;;;;5089850;28;20567;-64
2023/03/16 12:37:02;;;;;;;4.30;0.90;;;16.90;42.70;;;;;;5087425;28;20203;-62
2023/03/16 12:39:48;;;;;;;3.43;1.10;;;17.00;43.20;;;;;;5091155;28;20276;-63
2023/03/16 12:42:38;;;;;;;2.87;1.10;;;17.10;43.40;;;;;;5089672;28;20679;-61
2023/03/16 12:45:24;;;;;;;2.30;0.73;;;17.10;43.00;;;;;;5088278;28;20214;-64
2023/03/16 12:48:04;;;;;;;2.50;0.80;;;17.10;43.10;;;;;;5086173;28;20195;-62
2023/03/16 12:50:32;;;;;;;1.70;0.83;;;17.10;42.80;;;;;;5090955;28;20648;-64
2023/03/16 12:52:59;;;;;;;3.90;1.00;;;17.10;42.10;;;;;;5085654;28;20212;-64
2023/03/16 12:55:43;;;;;;;2.27;1.20;;;17.00;43.50;;;;;;5090278;28;20232;-63
2023/03/16 12:58:11;;;;;;;5.43;1.53;;;17.10;44.50;;;;;;5084941;28;20211;-63
2023/03/16 13:00:41;;;;;;;4.53;0.87;;;17.10;44.90;;;;;;5091091;28;20482;-62
2023/03/16 13:03:21;;;;;;;4.80;1.30;;;17.20;45.10;;;;;;5085758;28;20682;-61
2023/03/16 13:05:59;;;;;;;1.90;0.90;;;17.20;44.80;;;;;;5088032;28;20193;-62
2023/03/16 13:08:27;;;;;;;2.73;0.80;;;17.30;43.70;;;;;;5092042;28;20250;-63
2023/03/16 13:11:10;;;;;;;4.63;1.00;;;17.30;43.20;;;;;;5090591;28;20205;-64
2023/03/16 13:13:49;;;;;;;3.10;0.90;;;17.30;44.60;;;;;;5091352;28;20665;-63
2023/03/16 13:16:29;;;;;;;3.47;1.20;;;17.30;43.30;;;;;;5091676;28;20254;-63
2023/03/16 13:18:56;;;;;;;1.53;0.90;;;17.20;43.30;;;;;;5094663;28;20214;-63
2023/03/16 13:21:40;;;;;;;1.97;0.90;;;17.10;43.10;;;;;;5091324;28;20267;-66
2023/03/16 13:24:27;;;;;;;4.63;0.80;;;17.00;43.20;;;;;;5092070;28;20236;-67
2023/03/16 13:27:03;;;;;;;4.13;1.00;;;16.90;43.20;;;;;;5092903;28;20199;-63